sensor_id;sensor_type;location;lat;lon;timestamp;P1;durP1;ratioP1;P2;durP2;ratioP2
48935;SDS011;34745;52.276;10.528;2022-11-12T00:01:43;12.67;;;7.33;;
48935;SDS011;34745;52.276;10.528;2022-11-12T00:04:10;11.07;;;7.13;;
48935;SDS011;34745;52.276;10.528;2022-11-12T00:06:37;12.47;;;7.47;;
48935;SDS011;34745;52.276;10.528;2022-11-12T00:09:04;10.40;;;6.73;;
48935;SDS011;34745;52.276;10.528;2022-11-12T00:11:31;14.87;;;6.63;;
48935;SDS011;34745;52.276;10.528;2022-11-12T00:13:58;11.57;;;5.40;;
48935;SDS011;34745;52.276;10.528;2022-11-12T00:16:27;6.83;;;4.63;;
48935;SDS011;34745;52.276;10.528;2022-11-12T00:18:53;6.33;;;4.17;;
48935;SDS011;34745;52.276;10.528;2022-11-12T00:21:20;9.37;;;5.50;;
48935;SDS011;34745;52.276;10.528;2022-11-12T00:23:47;9.70;;;5.53;;
48935;SDS011;34745;52.276;10.528;2022-11-12T00:26:14;7.40;;;5.17;;
48935;SDS011;34745;52.276;10.528;2022-11-12T00:28:41;11.40;;;6.10;;
48935;SDS011;34745;52.276;10.528;2022-11-12T00:31:09;9.40;;;6.03;;
48935;SDS011;34745;52.276;10.528;2022-11-12T00:33:41;11.00;;;6.50;;
48935;SDS011;34745;52.276;10.528;2022-11-12T00:36:09;17.13;;;6.37;;
48935;SDS011;34745;52.276;10.528;2022-11-12T00:38:36;11.10;;;6.07;;
48935;SDS011;34745;52.276;10.528;2022-11-12T00:41:03;11.60;;;7.00;;
48935;SDS011;34745;52.276;10.528;2022-11-12T00:43:30;8.03;;;6.07;;
48935;SDS011;34745;52.276;10.528;2022-11-12T00:45:57;13.33;;;7.83;;
48935;SDS011;34745;52.276;10.528;2022-11-12T00:48:24;10.67;;;6.93;;
48935;SDS011;34745;52.276;10.528;2022-11-12T00:50:58;11.63;;;6.23;;
48935;SDS011;34745;52.276;10.528;2022-11-12T00:53:26;10.97;;;6.10;;
48935;SDS011;34745;52.276;10.528;2022-11-12T00:55:58;10.13;;;6.23;;
48935;SDS011;34745;52.276;10.528;2022-11-12T00:58:27;8.70;;;5.50;;
48935;SDS011;34745;52.276;10.528;2022-11-12T01:00:55;11.03;;;6.33;;
48935;SDS011;34745;52.276;10.528;2022-11-12T01:03:23;9.47;;;6.00;;
48935;SDS011;34745;52.276;10.528;2022-11-12T01:06:01;10.87;;;6.17;;
48935;SDS011;34745;52.276;10.528;2022-11-12T01:08:29;8.67;;;5.40;;
48935;SDS011;34745;52.276;10.528;2022-11-12T01:10:56;9.37;;;5.10;;
48935;SDS011;34745;52.276;10.528;2022-11-12T01:13:30;7.97;;;4.80;;
48935;SDS011;34745;52.276;10.528;2022-11-12T01:15:57;9.83;;;4.67;;
48935;SDS011;34745;52.276;10.528;2022-11-12T01:18:24;8.67;;;4.67;;
48935;SDS011;34745;52.276;10.528;2022-11-12T01:20:51;7.13;;;4.43;;
48935;SDS011;34745;52.276;10.528;2022-11-12T01:23:20;9.63;;;5.23;;
48935;SDS011;34745;52.276;10.528;2022-11-12T01:25:47;6.80;;;5.00;;
48935;SDS011;34745;52.276;10.528;2022-11-12T01:28:13;9.23;;;4.53;;
48935;SDS011;34745;52.276;10.528;2022-11-12T01:30:40;7.67;;;5.00;;
48935;SDS011;34745;52.276;10.528;2022-11-12T01:33:07;9.30;;;4.70;;
48935;SDS011;34745;52.276;10.528;2022-11-12T01:35:34;9.10;;;4.80;;
48935;SDS011;34745;52.276;10.528;2022-11-12T01:38:01;10.17;;;4.67;;
48935;SDS011;34745;52.276;10.528;2022-11-12T01:40:29;9.43;;;4.40;;
48935;SDS011;34745;52.276;10.528;2022-11-12T01:42:57;9.50;;;5.07;;
48935;SDS011;34745;52.276;10.528;2022-11-12T01:45:24;6.97;;;4.50;;
48935;SDS011;34745;52.276;10.528;2022-11-12T01:47:51;6.20;;;4.30;;
48935;SDS011;34745;52.276;10.528;2022-11-12T01:50:19;7.73;;;4.70;;
48935;SDS011;34745;52.276;10.528;2022-11-12T01:52:50;6.20;;;4.57;;
48935;SDS011;34745;52.276;10.528;2022-11-12T01:55:23;5.83;;;4.10;;
48935;SDS011;34745;52.276;10.528;2022-11-12T01:57:55;9.87;;;4.40;;
48935;SDS011;34745;52.276;10.528;2022-11-12T02:00:25;10.70;;;5.10;;
48935;SDS011;34745;52.276;10.528;2022-11-12T02:02:53;10.43;;;4.60;;
48935;SDS011;34745;52.276;10.528;2022-11-12T02:05:23;8.13;;;5.10;;
48935;SDS011;34745;52.276;10.528;2022-11-12T02:07:52;7.13;;;4.70;;
48935;SDS011;34745;52.276;10.528;2022-11-12T02:10:21;6.73;;;4.63;;
48935;SDS011;34745;52.276;10.528;2022-11-12T02:12:48;6.17;;;4.30;;
48935;SDS011;34745;52.276;10.528;2022-11-12T02:15:37;10.60;;;4.27;;
48935;SDS011;34745;52.276;10.528;2022-11-12T02:18:05;8.83;;;4.57;;
48935;SDS011;34745;52.276;10.528;2022-11-12T02:20:33;6.57;;;4.13;;
48935;SDS011;34745;52.276;10.528;2022-11-12T02:23:02;9.53;;;4.93;;
48935;SDS011;34745;52.276;10.528;2022-11-12T02:25:29;9.50;;;5.27;;
48935;SDS011;34745;52.276;10.528;2022-11-12T02:27:56;11.80;;;5.27;;
48935;SDS011;34745;52.276;10.528;2022-11-12T02:30:34;11.53;;;5.50;;
48935;SDS011;34745;52.276;10.528;2022-11-12T02:33:03;10.20;;;5.13;;
48935;SDS011;34745;52.276;10.528;2022-11-12T02:35:44;11.43;;;5.73;;
48935;SDS011;34745;52.276;10.528;2022-11-12T02:38:12;9.07;;;5.40;;
48935;SDS011;34745;52.276;10.528;2022-11-12T02:40:39;9.20;;;5.40;;
48935;SDS011;34745;52.276;10.528;2022-11-12T02:43:05;10.73;;;5.40;;
48935;SDS011;34745;52.276;10.528;2022-11-12T02:45:32;10.07;;;5.77;;
48935;SDS011;34745;52.276;10.528;2022-11-12T02:47:59;10.60;;;5.40;;
48935;SDS011;34745;52.276;10.528;2022-11-12T02:50:26;9.13;;;5.57;;
48935;SDS011;34745;52.276;10.528;2022-11-12T02:52:53;10.80;;;5.80;;
48935;SDS011;34745;52.276;10.528;2022-11-12T02:55:21;9.47;;;5.67;;
48935;SDS011;34745;52.276;10.528;2022-11-12T02:57:48;11.17;;;5.87;;
48935;SDS011;34745;52.276;10.528;2022-11-12T03:00:15;9.20;;;5.37;;
48935;SDS011;34745;52.276;10.528;2022-11-12T03:02:43;8.97;;;5.67;;
48935;SDS011;34745;52.276;10.528;2022-11-12T03:05:24;8.03;;;5.47;;
48935;SDS011;34745;52.276;10.528;2022-11-12T03:07:55;9.83;;;5.63;;
48935;SDS011;34745;52.276;10.528;2022-11-12T03:10:24;9.73;;;6.00;;
48935;SDS011;34745;52.276;10.528;2022-11-12T03:12:52;8.37;;;5.73;;
48935;SDS011;34745;52.276;10.528;2022-11-12T03:15:21;9.40;;;6.00;;
48935;SDS011;34745;52.276;10.528;2022-11-12T03:17:48;8.90;;;6.27;;
48935;SDS011;34745;52.276;10.528;2022-11-12T03:20:15;9.87;;;5.50;;
48935;SDS011;34745;52.276;10.528;2022-11-12T03:22:42;10.83;;;5.90;;
48935;SDS011;34745;52.276;10.528;2022-11-12T03:25:19;9.03;;;5.97;;
48935;SDS011;34745;52.276;10.528;2022-11-12T03:27:47;8.67;;;5.53;;
48935;SDS011;34745;52.276;10.528;2022-11-12T03:30:14;9.43;;;5.80;;
48935;SDS011;34745;52.276;10.528;2022-11-12T03:32:42;7.27;;;5.57;;
48935;SDS011;34745;52.276;10.528;2022-11-12T03:35:09;10.83;;;6.17;;
48935;SDS011;34745;52.276;10.528;2022-11-12T03:37:36;7.90;;;5.47;;
48935;SDS011;34745;52.276;10.528;2022-11-12T03:40:03;6.67;;;4.50;;
48935;SDS011;34745;52.276;10.528;2022-11-12T03:42:31;6.63;;;5.00;;
48935;SDS011;34745;52.276;10.528;2022-11-12T03:44:59;6.77;;;5.40;;
48935;SDS011;34745;52.276;10.528;2022-11-12T03:47:26;8.77;;;5.30;;
48935;SDS011;34745;52.276;10.528;2022-11-12T03:49:53;9.97;;;5.03;;
48935;SDS011;34745;52.276;10.528;2022-11-12T03:52:20;11.23;;;5.20;;
48935;SDS011;34745;52.276;10.528;2022-11-12T03:54:47;7.23;;;4.87;;
48935;SDS011;34745;52.276;10.528;2022-11-12T03:57:13;9.03;;;5.93;;
48935;SDS011;34745;52.276;10.528;2022-11-12T03:59:40;9.73;;;5.43;;
48935;SDS011;34745;52.276;10.528;2022-11-12T04:02:08;7.73;;;4.93;;
48935;SDS011;34745;52.276;10.528;2022-11-12T04:04:42;9.37;;;5.17;;
48935;SDS011;34745;52.276;10.528;2022-11-12T04:07:28;6.97;;;5.00;;
48935;SDS011;34745;52.276;10.528;2022-11-12T04:10:13;6.27;;;4.30;;
48935;SDS011;34745;52.276;10.528;2022-11-12T04:12:40;9.03;;;4.73;;
48935;SDS011;34745;52.276;10.528;2022-11-12T04:15:26;6.67;;;4.53;;
48935;SDS011;34745;52.276;10.528;2022-11-12T04:17:54;5.23;;;4.70;;
48935;SDS011;34745;52.276;10.528;2022-11-12T04:20:39;9.47;;;4.83;;
48935;SDS011;34745;52.276;10.528;2022-11-12T04:23:25;6.23;;;4.23;;
48935;SDS011;34745;52.276;10.528;2022-11-12T04:25:52;8.43;;;4.47;;
48935;SDS011;34745;52.276;10.528;2022-11-12T04:28:37;8.77;;;4.87;;
48935;SDS011;34745;52.276;10.528;2022-11-12T04:31:04;9.43;;;4.80;;
48935;SDS011;34745;52.276;10.528;2022-11-12T04:33:33;9.37;;;4.97;;
48935;SDS011;34745;52.276;10.528;2022-11-12T04:35:59;7.73;;;4.70;;
48935;SDS011;34745;52.276;10.528;2022-11-12T04:38:26;6.30;;;4.47;;
48935;SDS011;34745;52.276;10.528;2022-11-12T04:40:54;8.47;;;5.07;;
48935;SDS011;34745;52.276;10.528;2022-11-12T04:43:39;8.23;;;5.17;;
48935;SDS011;34745;52.276;10.528;2022-11-12T04:46:25;5.53;;;4.60;;
48935;SDS011;34745;52.276;10.528;2022-11-12T04:48:53;8.53;;;4.80;;
48935;SDS011;34745;52.276;10.528;2022-11-12T04:51:20;6.17;;;4.77;;
48935;SDS011;34745;52.276;10.528;2022-11-12T04:54:05;7.87;;;4.67;;
48935;SDS011;34745;52.276;10.528;2022-11-12T04:56:32;4.70;;;4.20;;
48935;SDS011;34745;52.276;10.528;2022-11-12T04:58:59;8.33;;;4.60;;
48935;SDS011;34745;52.276;10.528;2022-11-12T05:01:25;5.53;;;4.10;;
48935;SDS011;34745;52.276;10.528;2022-11-12T05:03:54;11.20;;;4.70;;
48935;SDS011;34745;52.276;10.528;2022-11-12T05:06:21;7.63;;;4.67;;
48935;SDS011;34745;52.276;10.528;2022-11-12T05:09:06;8.73;;;4.57;;
48935;SDS011;34745;52.276;10.528;2022-11-12T05:11:33;5.33;;;4.27;;
48935;SDS011;34745;52.276;10.528;2022-11-12T05:14:00;7.73;;;4.63;;
48935;SDS011;34745;52.276;10.528;2022-11-12T05:16:27;10.37;;;4.50;;
48935;SDS011;34745;52.276;10.528;2022-11-12T05:18:55;7.93;;;4.33;;
48935;SDS011;34745;52.276;10.528;2022-11-12T05:21:22;7.90;;;4.30;;
48935;SDS011;34745;52.276;10.528;2022-11-12T05:24:09;5.93;;;4.43;;
48935;SDS011;34745;52.276;10.528;2022-11-12T05:26:56;6.90;;;4.30;;
48935;SDS011;34745;52.276;10.528;2022-11-12T05:29:23;9.30;;;4.63;;
48935;SDS011;34745;52.276;10.528;2022-11-12T05:31:50;5.80;;;4.07;;
48935;SDS011;34745;52.276;10.528;2022-11-12T05:34:18;7.67;;;4.43;;
48935;SDS011;34745;52.276;10.528;2022-11-12T05:36:48;5.97;;;4.67;;
48935;SDS011;34745;52.276;10.528;2022-11-12T05:39:15;8.07;;;4.50;;
48935;SDS011;34745;52.276;10.528;2022-11-12T05:41:42;11.83;;;4.97;;
48935;SDS011;34745;52.276;10.528;2022-11-12T05:44:30;8.00;;;4.43;;
48935;SDS011;34745;52.276;10.528;2022-11-12T05:46:57;9.27;;;4.60;;
48935;SDS011;34745;52.276;10.528;2022-11-12T05:49:25;5.07;;;4.50;;
48935;SDS011;34745;52.276;10.528;2022-11-12T05:51:52;5.70;;;4.87;;
48935;SDS011;34745;52.276;10.528;2022-11-12T05:54:19;14.37;;;5.47;;
48935;SDS011;34745;52.276;10.528;2022-11-12T05:56:46;5.23;;;4.37;;
48935;SDS011;34745;52.276;10.528;2022-11-12T05:59:13;9.87;;;4.50;;
48935;SDS011;34745;52.276;10.528;2022-11-12T06:01:40;6.43;;;4.37;;
48935;SDS011;34745;52.276;10.528;2022-11-12T06:04:10;6.97;;;4.67;;
48935;SDS011;34745;52.276;10.528;2022-11-12T06:06:39;5.57;;;4.27;;
48935;SDS011;34745;52.276;10.528;2022-11-12T06:09:06;6.63;;;4.77;;
48935;SDS011;34745;52.276;10.528;2022-11-12T06:11:33;9.73;;;5.03;;
48935;SDS011;34745;52.276;10.528;2022-11-12T06:14:01;6.63;;;4.43;;
48935;SDS011;34745;52.276;10.528;2022-11-12T06:16:29;6.37;;;4.23;;
48935;SDS011;34745;52.276;10.528;2022-11-12T06:18:56;6.47;;;4.20;;
48935;SDS011;34745;52.276;10.528;2022-11-12T06:21:24;4.97;;;4.07;;
48935;SDS011;34745;52.276;10.528;2022-11-12T06:23:54;6.73;;;4.73;;
48935;SDS011;34745;52.276;10.528;2022-11-12T06:26:23;9.07;;;5.07;;
48935;SDS011;34745;52.276;10.528;2022-11-12T06:28:51;7.27;;;5.30;;
48935;SDS011;34745;52.276;10.528;2022-11-12T06:31:19;6.70;;;4.50;;
48935;SDS011;34745;52.276;10.528;2022-11-12T06:33:46;7.47;;;4.73;;
48935;SDS011;34745;52.276;10.528;2022-11-12T06:36:14;7.90;;;4.53;;
48935;SDS011;34745;52.276;10.528;2022-11-12T06:38:42;8.23;;;4.53;;
48935;SDS011;34745;52.276;10.528;2022-11-12T06:41:12;10.73;;;4.47;;
48935;SDS011;34745;52.276;10.528;2022-11-12T06:43:39;8.27;;;5.03;;
48935;SDS011;34745;52.276;10.528;2022-11-12T06:46:08;6.17;;;4.93;;
48935;SDS011;34745;52.276;10.528;2022-11-12T06:48:37;7.70;;;4.27;;
48935;SDS011;34745;52.276;10.528;2022-11-12T06:51:06;10.20;;;4.57;;
48935;SDS011;34745;52.276;10.528;2022-11-12T06:53:34;10.77;;;5.03;;
48935;SDS011;34745;52.276;10.528;2022-11-12T06:56:01;8.33;;;5.13;;
48935;SDS011;34745;52.276;10.528;2022-11-12T06:58:31;6.07;;;4.37;;
48935;SDS011;34745;52.276;10.528;2022-11-12T07:01:02;9.23;;;4.87;;
48935;SDS011;34745;52.276;10.528;2022-11-12T07:03:37;8.43;;;4.80;;
48935;SDS011;34745;52.276;10.528;2022-11-12T07:06:05;12.17;;;4.97;;
48935;SDS011;34745;52.276;10.528;2022-11-12T07:08:34;6.40;;;4.60;;
48935;SDS011;34745;52.276;10.528;2022-11-12T07:11:01;8.10;;;4.40;;
48935;SDS011;34745;52.276;10.528;2022-11-12T07:13:30;7.27;;;4.60;;
48935;SDS011;34745;52.276;10.528;2022-11-12T07:15:59;11.93;;;5.03;;
48935;SDS011;34745;52.276;10.528;2022-11-12T07:18:27;8.80;;;4.53;;
48935;SDS011;34745;52.276;10.528;2022-11-12T07:20:58;4.87;;;4.37;;
48935;SDS011;34745;52.276;10.528;2022-11-12T07:23:25;7.13;;;4.63;;
48935;SDS011;34745;52.276;10.528;2022-11-12T07:25:56;12.67;;;5.43;;
48935;SDS011;34745;52.276;10.528;2022-11-12T07:28:24;9.07;;;4.30;;
48935;SDS011;34745;52.276;10.528;2022-11-12T07:30:57;8.10;;;4.93;;
48935;SDS011;34745;52.276;10.528;2022-11-12T07:33:25;7.37;;;4.30;;
48935;SDS011;34745;52.276;10.528;2022-11-12T07:35:57;6.87;;;4.43;;
48935;SDS011;34745;52.276;10.528;2022-11-12T07:38:24;7.17;;;5.20;;
48935;SDS011;34745;52.276;10.528;2022-11-12T07:40:57;11.83;;;5.67;;
48935;SDS011;34745;52.276;10.528;2022-11-12T07:43:25;8.47;;;4.87;;
48935;SDS011;34745;52.276;10.528;2022-11-12T07:45:57;8.60;;;5.33;;
48935;SDS011;34745;52.276;10.528;2022-11-12T07:48:24;10.90;;;5.07;;
48935;SDS011;34745;52.276;10.528;2022-11-12T07:50:57;10.33;;;5.47;;
48935;SDS011;34745;52.276;10.528;2022-11-12T07:53:25;9.30;;;5.50;;
48935;SDS011;34745;52.276;10.528;2022-11-12T07:55:52;9.13;;;5.33;;
48935;SDS011;34745;52.276;10.528;2022-11-12T07:58:20;11.80;;;5.63;;
48935;SDS011;34745;52.276;10.528;2022-11-12T08:00:48;13.67;;;5.50;;
48935;SDS011;34745;52.276;10.528;2022-11-12T08:03:16;9.47;;;5.77;;
48935;SDS011;34745;52.276;10.528;2022-11-12T08:05:44;15.20;;;7.17;;
48935;SDS011;34745;52.276;10.528;2022-11-12T08:08:11;8.77;;;5.60;;
48935;SDS011;34745;52.276;10.528;2022-11-12T08:10:38;11.73;;;5.70;;
48935;SDS011;34745;52.276;10.528;2022-11-12T08:13:05;9.80;;;5.90;;
48935;SDS011;34745;52.276;10.528;2022-11-12T08:15:32;10.73;;;6.00;;
48935;SDS011;34745;52.276;10.528;2022-11-12T08:17:59;13.57;;;7.10;;
48935;SDS011;34745;52.276;10.528;2022-11-12T08:20:27;10.30;;;6.70;;
48935;SDS011;34745;52.276;10.528;2022-11-12T08:22:57;11.73;;;6.30;;
48935;SDS011;34745;52.276;10.528;2022-11-12T08:25:25;10.07;;;6.30;;
48935;SDS011;34745;52.276;10.528;2022-11-12T08:27:54;8.70;;;6.10;;
48935;SDS011;34745;52.276;10.528;2022-11-12T08:30:22;12.40;;;6.00;;
48935;SDS011;34745;52.276;10.528;2022-11-12T08:32:53;14.33;;;6.43;;
48935;SDS011;34745;52.276;10.528;2022-11-12T08:35:21;11.60;;;5.90;;
48935;SDS011;34745;52.276;10.528;2022-11-12T08:37:49;9.43;;;5.90;;
48935;SDS011;34745;52.276;10.528;2022-11-12T08:40:16;10.27;;;6.57;;
48935;SDS011;34745;52.276;10.528;2022-11-12T08:42:43;10.27;;;7.23;;
48935;SDS011;34745;52.276;10.528;2022-11-12T08:45:10;10.20;;;7.33;;
48935;SDS011;34745;52.276;10.528;2022-11-12T08:47:37;13.90;;;6.87;;
48935;SDS011;34745;52.276;10.528;2022-11-12T08:50:04;11.57;;;6.13;;
48935;SDS011;34745;52.276;10.528;2022-11-12T08:52:31;8.43;;;6.27;;
48935;SDS011;34745;52.276;10.528;2022-11-12T08:55:00;14.07;;;10.43;;
48935;SDS011;34745;52.276;10.528;2022-11-12T08:57:27;23.33;;;16.40;;
48935;SDS011;34745;52.276;10.528;2022-11-12T08:59:54;18.73;;;13.27;;
48935;SDS011;34745;52.276;10.528;2022-11-12T09:02:20;36.53;;;24.20;;
48935;SDS011;34745;52.276;10.528;2022-11-12T09:04:47;12.00;;;8.67;;
48935;SDS011;34745;52.276;10.528;2022-11-12T09:07:14;11.40;;;7.43;;
48935;SDS011;34745;52.276;10.528;2022-11-12T09:10:03;72.23;;;8.17;;
48935;SDS011;34745;52.276;10.528;2022-11-12T09:12:31;12.10;;;6.70;;
48935;SDS011;34745;52.276;10.528;2022-11-12T09:14:57;11.27;;;7.60;;
48935;SDS011;34745;52.276;10.528;2022-11-12T09:17:44;24.00;;;16.30;;
48935;SDS011;34745;52.276;10.528;2022-11-12T09:20:12;9.63;;;7.37;;
48935;SDS011;34745;52.276;10.528;2022-11-12T09:22:39;14.13;;;8.90;;
48935;SDS011;34745;52.276;10.528;2022-11-12T09:25:07;9.80;;;7.20;;
48935;SDS011;34745;52.276;10.528;2022-11-12T09:27:34;8.83;;;5.00;;
48935;SDS011;34745;52.276;10.528;2022-11-12T09:30:02;11.10;;;5.63;;
48935;SDS011;34745;52.276;10.528;2022-11-12T09:32:29;12.37;;;8.23;;
48935;SDS011;34745;52.276;10.528;2022-11-12T09:34:56;17.50;;;11.97;;
48935;SDS011;34745;52.276;10.528;2022-11-12T09:37:23;9.93;;;7.50;;
48935;SDS011;34745;52.276;10.528;2022-11-12T09:39:50;8.73;;;5.33;;
48935;SDS011;34745;52.276;10.528;2022-11-12T09:42:19;7.57;;;5.30;;
48935;SDS011;34745;52.276;10.528;2022-11-12T09:44:50;10.77;;;6.90;;
48935;SDS011;34745;52.276;10.528;2022-11-12T09:47:22;13.10;;;8.80;;
48935;SDS011;34745;52.276;10.528;2022-11-12T09:49:56;11.83;;;6.70;;
48935;SDS011;34745;52.276;10.528;2022-11-12T09:52:35;13.27;;;7.63;;
48935;SDS011;34745;52.276;10.528;2022-11-12T09:55:05;9.10;;;5.60;;
48935;SDS011;34745;52.276;10.528;2022-11-12T09:57:39;16.90;;;9.57;;
48935;SDS011;34745;52.276;10.528;2022-11-12T10:00:08;16.90;;;7.40;;
48935;SDS011;34745;52.276;10.528;2022-11-12T10:02:40;9.73;;;6.27;;
48935;SDS011;34745;52.276;10.528;2022-11-12T10:05:17;7.40;;;5.80;;
48935;SDS011;34745;52.276;10.528;2022-11-12T10:07:55;6.77;;;5.50;;
48935;SDS011;34745;52.276;10.528;2022-11-12T10:10:33;10.60;;;6.13;;
48935;SDS011;34745;52.276;10.528;2022-11-12T10:13:13;6.73;;;5.33;;
48935;SDS011;34745;52.276;10.528;2022-11-12T10:15:52;7.23;;;5.70;;
48935;SDS011;34745;52.276;10.528;2022-11-12T10:18:54;9.23;;;5.80;;
48935;SDS011;34745;52.276;10.528;2022-11-12T10:21:37;9.80;;;6.17;;
48935;SDS011;34745;52.276;10.528;2022-11-12T10:24:11;19.97;;;11.90;;
48935;SDS011;34745;52.276;10.528;2022-11-12T10:26:39;12.60;;;8.10;;
48935;SDS011;34745;52.276;10.528;2022-11-12T10:29:12;12.70;;;6.43;;
48935;SDS011;34745;52.276;10.528;2022-11-12T10:31:45;10.87;;;6.20;;
48935;SDS011;34745;52.276;10.528;2022-11-12T10:34:16;13.57;;;9.00;;
48935;SDS011;34745;52.276;10.528;2022-11-12T10:36:45;14.97;;;9.33;;
48935;SDS011;34745;52.276;10.528;2022-11-12T10:39:33;10.40;;;6.30;;
48935;SDS011;34745;52.276;10.528;2022-11-12T10:42:03;8.70;;;5.30;;
48935;SDS011;34745;52.276;10.528;2022-11-12T10:44:33;7.37;;;5.30;;
48935;SDS011;34745;52.276;10.528;2022-11-12T10:52:56;7.40;;;5.27;;
48935;SDS011;34745;52.276;10.528;2022-11-12T10:55:25;10.43;;;5.63;;
48935;SDS011;34745;52.276;10.528;2022-11-12T10:58:14;13.43;;;5.37;;
48935;SDS011;34745;52.276;10.528;2022-11-12T11:00:52;9.97;;;5.00;;
48935;SDS011;34745;52.276;10.528;2022-11-12T11:03:22;18.53;;;10.33;;
48935;SDS011;34745;52.276;10.528;2022-11-12T11:05:51;17.77;;;11.53;;
48935;SDS011;34745;52.276;10.528;2022-11-12T11:08:33;12.87;;;10.17;;
48935;SDS011;34745;52.276;10.528;2022-11-12T11:11:10;14.80;;;8.50;;
48935;SDS011;34745;52.276;10.528;2022-11-12T11:13:44;17.67;;;6.50;;
48935;SDS011;34745;52.276;10.528;2022-11-12T11:16:19;9.80;;;6.83;;
48935;SDS011;34745;52.276;10.528;2022-11-12T11:18:48;13.60;;;7.23;;
48935;SDS011;34745;52.276;10.528;2022-11-12T11:21:29;18.53;;;9.93;;
48935;SDS011;34745;52.276;10.528;2022-11-12T11:24:18;13.63;;;5.93;;
48935;SDS011;34745;52.276;10.528;2022-11-12T11:26:55;10.37;;;5.80;;
48935;SDS011;34745;52.276;10.528;2022-11-12T11:29:43;8.13;;;5.70;;
48935;SDS011;34745;52.276;10.528;2022-11-12T11:32:32;9.37;;;5.37;;
48935;SDS011;34745;52.276;10.528;2022-11-12T11:35:13;9.50;;;5.87;;
48935;SDS011;34745;52.276;10.528;2022-11-12T11:37:47;10.27;;;6.17;;
48935;SDS011;34745;52.276;10.528;2022-11-12T11:40:25;9.37;;;5.87;;
48935;SDS011;34745;52.276;10.528;2022-11-12T11:46:10;8.43;;;5.80;;
48935;SDS011;34745;52.276;10.528;2022-11-12T11:48:48;11.37;;;5.83;;
48935;SDS011;34745;52.276;10.528;2022-11-12T11:51:35;9.40;;;5.93;;
48935;SDS011;34745;52.276;10.528;2022-11-12T11:54:12;8.37;;;6.00;;
48935;SDS011;34745;52.276;10.528;2022-11-12T11:56:50;10.40;;;5.47;;
48935;SDS011;34745;52.276;10.528;2022-11-12T11:59:23;7.40;;;5.10;;
48935;SDS011;34745;52.276;10.528;2022-11-12T12:02:10;7.40;;;5.13;;
48935;SDS011;34745;52.276;10.528;2022-11-12T12:05:01;9.50;;;5.20;;
48935;SDS011;34745;52.276;10.528;2022-11-12T12:07:36;10.80;;;4.90;;
48935;SDS011;34745;52.276;10.528;2022-11-12T12:10:14;9.63;;;4.73;;
48935;SDS011;34745;52.276;10.528;2022-11-12T12:12:52;6.40;;;5.00;;
48935;SDS011;34745;52.276;10.528;2022-11-12T12:15:35;13.27;;;6.30;;
48935;SDS011;34745;52.276;10.528;2022-11-12T12:18:20;14.20;;;5.77;;
48935;SDS011;34745;52.276;10.528;2022-11-12T12:20:59;15.43;;;8.10;;
48935;SDS011;34745;52.276;10.528;2022-11-12T12:23:32;11.00;;;5.70;;
48935;SDS011;34745;52.276;10.528;2022-11-12T12:26:04;8.10;;;4.20;;
48935;SDS011;34745;52.276;10.528;2022-11-12T12:28:46;7.63;;;2.63;;
48935;SDS011;34745;52.276;10.528;2022-11-12T12:31:20;3.17;;;2.40;;
48935;SDS011;34745;52.276;10.528;2022-11-12T12:33:51;2.60;;;1.70;;
48935;SDS011;34745;52.276;10.528;2022-11-12T12:36:23;2.25;;;1.60;;
48935;SDS011;34745;52.276;10.528;2022-11-12T12:38:59;2.47;;;1.83;;
48935;SDS011;34745;52.276;10.528;2022-11-12T12:41:37;4.60;;;1.90;;
48935;SDS011;34745;52.276;10.528;2022-11-12T12:44:08;2.13;;;2.00;;
48935;SDS011;34745;52.276;10.528;2022-11-12T12:46:37;4.30;;;1.93;;
48935;SDS011;34745;52.276;10.528;2022-11-12T12:49:09;2.50;;;1.73;;
48935;SDS011;34745;52.276;10.528;2022-11-12T12:51:42;3.13;;;2.40;;
48935;SDS011;34745;52.276;10.528;2022-11-12T12:57:26;8.50;;;5.25;;
48935;SDS011;34745;52.276;10.528;2022-11-12T13:02:55;3.75;;;1.80;;
48935;SDS011;34745;52.276;10.528;2022-11-12T13:05:23;2.97;;;2.00;;
48935;SDS011;34745;52.276;10.528;2022-11-12T13:07:57;4.75;;;1.80;;
48935;SDS011;34745;52.276;10.528;2022-11-12T13:13:23;6.88;;;2.30;;
48935;SDS011;34745;52.276;10.528;2022-11-12T13:15:58;4.90;;;2.00;;
48935;SDS011;34745;52.276;10.528;2022-11-12T13:21:24;2.65;;;2.20;;
48935;SDS011;34745;52.276;10.528;2022-11-12T13:23:53;4.13;;;2.28;;
48935;SDS011;34745;52.276;10.528;2022-11-12T13:26:44;3.85;;;2.58;;
48935;SDS011;34745;52.276;10.528;2022-11-12T13:29:22;3.47;;;3.17;;
48935;SDS011;34745;52.276;10.528;2022-11-12T13:34:50;10.90;;;5.47;;
48935;SDS011;34745;52.276;10.528;2022-11-12T13:37:42;8.50;;;3.67;;
48935;SDS011;34745;52.276;10.528;2022-11-12T13:40:12;7.80;;;2.85;;
48935;SDS011;34745;52.276;10.528;2022-11-12T13:42:41;3.63;;;2.40;;
48935;SDS011;34745;52.276;10.528;2022-11-12T13:45:14;3.45;;;2.53;;
48935;SDS011;34745;52.276;10.528;2022-11-12T13:47:41;6.47;;;2.63;;
48935;SDS011;34745;52.276;10.528;2022-11-12T13:50:12;5.80;;;2.83;;
48935;SDS011;34745;52.276;10.528;2022-11-12T13:52:42;4.93;;;3.77;;
48935;SDS011;34745;52.276;10.528;2022-11-12T13:55:12;8.93;;;5.77;;
48935;SDS011;34745;52.276;10.528;2022-11-12T13:57:40;6.73;;;4.23;;
48935;SDS011;34745;52.276;10.528;2022-11-12T14:00:22;5.27;;;3.70;;
48935;SDS011;34745;52.276;10.528;2022-11-12T14:02:54;5.07;;;3.23;;
48935;SDS011;34745;52.276;10.528;2022-11-12T14:05:24;6.10;;;3.23;;
48935;SDS011;34745;52.276;10.528;2022-11-12T14:07:56;7.73;;;3.23;;
48935;SDS011;34745;52.276;10.528;2022-11-12T14:10:39;5.73;;;3.43;;
48935;SDS011;34745;52.276;10.528;2022-11-12T14:13:21;5.90;;;3.17;;
48935;SDS011;34745;52.276;10.528;2022-11-12T14:16:04;7.43;;;3.07;;
48935;SDS011;34745;52.276;10.528;2022-11-12T14:18:46;5.43;;;3.50;;
48935;SDS011;34745;52.276;10.528;2022-11-12T14:21:32;5.07;;;3.70;;
48935;SDS011;34745;52.276;10.528;2022-11-12T14:23:59;6.40;;;3.60;;
48935;SDS011;34745;52.276;10.528;2022-11-12T14:26:36;6.40;;;3.27;;
48935;SDS011;34745;52.276;10.528;2022-11-12T14:29:05;4.83;;;2.80;;
48935;SDS011;34745;52.276;10.528;2022-11-12T14:31:32;3.73;;;2.47;;
48935;SDS011;34745;52.276;10.528;2022-11-12T14:36:47;6.23;;;2.30;;
48935;SDS011;34745;52.276;10.528;2022-11-12T14:39:14;2.70;;;2.40;;
48935;SDS011;34745;52.276;10.528;2022-11-12T14:41:43;2.73;;;2.10;;
48935;SDS011;34745;52.276;10.528;2022-11-12T14:44:15;3.77;;;2.10;;
48935;SDS011;34745;52.276;10.528;2022-11-12T14:46:46;2.03;;;1.70;;
48935;SDS011;34745;52.276;10.528;2022-11-12T14:49:16;3.83;;;1.80;;
48935;SDS011;34745;52.276;10.528;2022-11-12T14:51:46;8.00;;;2.27;;
48935;SDS011;34745;52.276;10.528;2022-11-12T14:54:17;2.67;;;2.00;;
48935;SDS011;34745;52.276;10.528;2022-11-12T14:56:52;7.10;;;2.70;;
48935;SDS011;34745;52.276;10.528;2022-11-12T14:59:19;5.87;;;2.63;;
48935;SDS011;34745;52.276;10.528;2022-11-12T15:02:04;7.20;;;2.50;;
48935;SDS011;34745;52.276;10.528;2022-11-12T15:04:57;4.83;;;2.27;;
48935;SDS011;34745;52.276;10.528;2022-11-12T15:07:26;3.83;;;2.23;;
48935;SDS011;34745;52.276;10.528;2022-11-12T15:09:55;12.00;;;2.80;;
48935;SDS011;34745;52.276;10.528;2022-11-12T15:12:24;3.83;;;2.17;;
48935;SDS011;34745;52.276;10.528;2022-11-12T15:15:02;5.20;;;2.87;;
48935;SDS011;34745;52.276;10.528;2022-11-12T15:17:34;8.37;;;3.20;;
48935;SDS011;34745;52.276;10.528;2022-11-12T15:20:03;6.50;;;3.07;;
48935;SDS011;34745;52.276;10.528;2022-11-12T15:22:37;4.70;;;4.30;;